createdAt,value
2022-12-11T00:00:15.647Z,26.45
2022-12-11T00:05:29.735Z,26.95
2022-12-11T00:07:57.366Z,25.98
2022-12-11T00:10:24.019Z,25.35
2022-12-11T00:12:50.668Z,26.85
2022-12-11T00:15:17.320Z,25.92
2022-12-11T00:17:43.988Z,26.13
2022-12-11T00:20:11.023Z,26.67
2022-12-11T00:22:37.677Z,27.48
2022-12-11T00:25:04.669Z,26.65
2022-12-11T00:27:31.337Z,27.55
2022-12-11T00:29:58.095Z,25.10
2022-12-11T00:32:24.762Z,25.00
2022-12-11T00:34:51.385Z,27.17
2022-12-11T00:37:18.236Z,26.65
2022-12-11T00:39:45.835Z,26.20
2022-12-11T00:42:12.453Z,27.52
2022-12-11T00:44:39.029Z,26.85
2022-12-11T00:47:05.671Z,26.27
2022-12-11T00:49:32.301Z,28.48
2022-12-11T00:51:59.044Z,25.42
2022-12-11T00:54:25.652Z,27.33
2022-12-11T00:56:52.290Z,26.50
2022-12-11T00:59:18.967Z,28.40
2022-12-11T01:01:45.702Z,28.80
2022-12-11T01:04:12.336Z,26.20
2022-12-11T01:06:39.550Z,29.92
2022-12-11T01:09:24.725Z,29.40
2022-12-11T01:11:51.938Z,27.90
2022-12-11T01:14:20.119Z,28.45
2022-12-11T01:16:46.867Z,29.60
2022-12-11T01:19:13.526Z,29.60
2022-12-11T01:21:41.069Z,30.05
2022-12-11T01:24:07.718Z,32.08
2022-12-11T01:26:34.525Z,33.08
2022-12-11T01:29:01.464Z,30.63
2022-12-11T01:31:28.128Z,32.25
2022-12-11T01:33:55.897Z,33.13
2022-12-11T01:36:25.526Z,31.73
2022-12-11T01:38:54.274Z,29.52
2022-12-11T01:41:21.438Z,31.35
2022-12-11T01:43:57.889Z,32.53
2022-12-11T01:46:25.954Z,32.58
2022-12-11T01:48:53.540Z,32.08
2022-12-11T01:51:20.963Z,33.53
2022-12-11T01:53:52.610Z,32.03
2022-12-11T01:56:19.923Z,29.20
2022-12-11T01:58:57.197Z,30.05
2022-12-11T02:01:42.232Z,31.48
2022-12-11T02:04:10.891Z,29.73
2022-12-11T02:06:40.406Z,29.85
2022-12-11T02:09:13.202Z,31.45
2022-12-11T02:12:11.948Z,29.88
2022-12-11T02:14:44.253Z,27.92
2022-12-11T02:17:13.932Z,29.88
2022-12-11T02:19:48.270Z,30.17
2022-12-11T02:22:33.400Z,30.05
2022-12-11T02:25:33.874Z,27.77
2022-12-11T02:28:33.548Z,27.63
2022-12-11T02:31:27.744Z,26.83
2022-12-11T02:34:17.306Z,27.05
2022-12-11T02:36:48.663Z,27.95
2022-12-11T02:39:17.324Z,26.13
2022-12-11T02:41:50.789Z,28.58
2022-12-11T02:44:21.417Z,25.90
2022-12-11T02:46:48.073Z,28.45
2022-12-11T02:49:15.883Z,27.88
2022-12-11T02:51:44.214Z,26.70
2022-12-11T02:54:20.803Z,29.75
2022-12-11T02:56:54.155Z,27.48
2022-12-11T02:59:26.049Z,29.58
2022-12-11T03:01:52.765Z,29.75
2022-12-11T03:04:19.386Z,26.90
2022-12-11T03:06:51.241Z,25.75
2022-12-11T03:09:23.500Z,24.98
2022-12-11T03:11:50.100Z,26.27
2022-12-11T03:14:16.743Z,25.85
2022-12-11T03:17:03.673Z,26.55
2022-12-11T03:19:47.856Z,28.17
2022-12-11T03:22:37.059Z,24.67
2022-12-11T03:25:10.276Z,24.92
2022-12-11T03:27:45.008Z,25.67
2022-12-11T03:30:20.280Z,25.33
2022-12-11T03:33:00.655Z,23.27
2022-12-11T03:35:34.167Z,22.08
2022-12-11T03:38:06.236Z,21.55
2022-12-11T03:40:35.526Z,20.60
2022-12-11T03:43:04.011Z,23.88
2022-12-11T03:45:32.186Z,21.42
2022-12-11T03:48:01.468Z,20.13
2022-12-11T03:50:30.775Z,19.73
2022-12-11T03:52:58.585Z,21.77
2022-12-11T03:55:26.494Z,21.65
2022-12-11T03:57:53.183Z,22.10
2022-12-11T04:00:20.993Z,23.25
2022-12-11T04:03:12.733Z,24.77
2022-12-11T04:05:55.183Z,24.00
2022-12-11T04:08:23.291Z,23.65
2022-12-11T04:11:11.048Z,23.63
2022-12-11T04:13:38.298Z,22.20
2022-12-11T04:16:06.684Z,23.50
2022-12-11T04:18:52.098Z,23.05
2022-12-11T04:21:39.614Z,23.23
2022-12-11T04:24:16.244Z,22.13
2022-12-11T04:26:45.206Z,23.70
2022-12-11T04:29:12.607Z,24.13
2022-12-11T04:31:39.231Z,22.10
2022-12-11T04:34:06.011Z,25.67
2022-12-11T04:36:32.593Z,26.27
2022-12-11T04:38:59.188Z,24.08
2022-12-11T04:41:25.903Z,24.35
2022-12-11T04:43:52.601Z,22.40
2022-12-11T04:46:22.323Z,25.17
2022-12-11T04:48:55.452Z,27.80
2022-12-11T04:51:24.009Z,26.63
2022-12-11T04:53:50.644Z,26.23
2022-12-11T04:56:17.406Z,30.23
2022-12-11T04:58:45.372Z,28.50
2022-12-11T05:01:14.451Z,28.05
2022-12-11T05:06:26.647Z,29.00
2022-12-11T05:08:53.665Z,30.13
2022-12-11T05:11:20.251Z,28.52
2022-12-11T05:13:46.979Z,34.50
2022-12-11T05:16:16.867Z,31.00
2022-12-11T05:18:43.759Z,31.85
2022-12-11T05:21:12.842Z,31.77
2022-12-11T05:23:40.046Z,34.70
2022-12-11T05:26:16.159Z,34.28
2022-12-11T05:28:43.896Z,32.85
2022-12-11T05:31:14.722Z,32.85
2022-12-11T05:33:41.606Z,33.95
2022-12-11T05:36:09.041Z,35.63
2022-12-11T05:38:36.134Z,35.08
2022-12-11T05:41:05.774Z,36.55
2022-12-11T05:43:34.078Z,40.63
2022-12-11T05:46:16.602Z,30.77
2022-12-11T05:48:45.986Z,35.65
2022-12-11T05:51:14.241Z,33.47
2022-12-11T05:53:42.275Z,35.03
2022-12-11T05:56:16.244Z,30.90
2022-12-11T05:58:44.794Z,33.95
2022-12-11T06:01:16.665Z,31.00
2022-12-11T06:03:43.555Z,39.70
2022-12-11T06:06:10.328Z,32.97
2022-12-11T06:08:37.014Z,35.72
2022-12-11T06:11:05.440Z,38.17
2022-12-11T06:13:32.237Z,39.20
2022-12-11T06:16:04.183Z,40.15
2022-12-11T06:18:31.674Z,37.30
2022-12-11T06:20:58.358Z,34.08
2022-12-11T06:23:24.963Z,39.80
2022-12-11T06:25:51.640Z,34.13
2022-12-11T06:28:18.248Z,38.95
2022-12-11T06:30:45.058Z,36.45
2022-12-11T06:33:11.671Z,37.95
2022-12-11T06:35:41.996Z,33.53
2022-12-11T06:38:10.539Z,37.00
2022-12-11T06:40:37.351Z,36.80
2022-12-11T06:43:03.969Z,34.17
2022-12-11T06:45:30.793Z,36.35
2022-12-11T06:47:58.183Z,33.85
2022-12-11T06:50:24.838Z,33.67
2022-12-11T06:52:51.434Z,34.05
2022-12-11T06:55:18.062Z,33.05
2022-12-11T06:57:44.679Z,34.45
2022-12-11T07:00:11.858Z,36.40
2022-12-11T07:02:38.589Z,34.53
2022-12-11T07:05:05.677Z,34.13
2022-12-11T07:07:32.300Z,33.03
2022-12-11T07:10:04.211Z,33.65
2022-12-11T07:12:34.509Z,35.42
2022-12-11T07:15:01.164Z,34.60
2022-12-11T07:17:29.161Z,33.40
2022-12-11T07:19:55.991Z,30.40
2022-12-11T07:22:22.777Z,32.58
2022-12-11T07:24:49.431Z,34.58
2022-12-11T07:27:16.122Z,33.28
2022-12-11T07:29:42.660Z,31.30
2022-12-11T07:32:09.456Z,31.33
2022-12-11T07:34:36.396Z,34.80
2022-12-11T07:37:03.165Z,36.45
2022-12-11T07:39:29.728Z,36.15
2022-12-11T07:41:56.314Z,31.70
2022-12-11T07:44:23.244Z,30.23
2022-12-11T07:46:49.795Z,32.97
2022-12-11T07:49:16.634Z,29.95
2022-12-11T07:51:43.535Z,29.13
2022-12-11T07:54:16.367Z,35.58
2022-12-11T07:56:52.739Z,32.97
2022-12-11T07:59:20.989Z,34.58
2022-12-11T08:01:47.675Z,34.63
2022-12-11T08:04:15.544Z,32.85
2022-12-11T08:06:43.011Z,33.88
2022-12-11T08:09:18.929Z,35.83
2022-12-11T08:11:50.023Z,35.88
2022-12-11T08:14:16.938Z,35.72
2022-12-11T08:16:44.242Z,31.80
2022-12-11T08:19:14.599Z,36.03
2022-12-11T08:21:41.299Z,34.33
2022-12-11T08:24:09.057Z,34.58
2022-12-11T08:26:35.831Z,36.30
2022-12-11T08:29:02.963Z,33.85
2022-12-11T08:31:30.388Z,32.22
2022-12-11T08:33:57.511Z,32.80
2022-12-11T08:36:24.784Z,33.97
2022-12-11T08:38:52.179Z,33.75
2022-12-11T08:41:27.428Z,34.90
2022-12-11T08:43:55.516Z,31.98
2022-12-11T08:46:26.502Z,31.48
2022-12-11T08:48:54.332Z,32.03
2022-12-11T08:51:22.913Z,31.10
2022-12-11T08:53:51.163Z,34.30
2022-12-11T08:56:20.728Z,32.15
2022-12-11T08:58:47.916Z,30.77
2022-12-11T09:01:21.623Z,32.17
2022-12-11T09:03:50.123Z,33.20
2022-12-11T09:06:19.614Z,33.95
2022-12-11T09:08:52.143Z,27.65
2022-12-11T09:11:22.342Z,23.02
2022-12-11T09:13:49.212Z,33.35
2022-12-11T09:16:18.456Z,28.92
2022-12-11T09:18:47.204Z,31.45
2022-12-11T09:21:17.133Z,29.15
2022-12-11T09:23:44.113Z,28.80
2022-12-11T09:26:13.633Z,29.70
2022-12-11T09:28:44.382Z,29.88
2022-12-11T09:31:19.164Z,34.28
2022-12-11T09:33:46.056Z,29.10
2022-12-11T09:36:13.041Z,30.67
2022-12-11T09:38:40.135Z,31.60
2022-12-11T09:41:21.836Z,30.00
2022-12-11T09:44:15.585Z,27.48
2022-12-11T09:46:43.486Z,26.92
2022-12-11T09:49:35.410Z,27.17
2022-12-11T09:52:26.559Z,23.77
2022-12-11T09:55:01.762Z,25.48
2022-12-11T09:57:46.869Z,25.35
2022-12-11T10:00:31.722Z,23.10
2022-12-11T10:03:10.691Z,23.30
2022-12-11T10:05:58.381Z,27.00
2022-12-11T10:08:40.120Z,22.80
2022-12-11T10:11:38.752Z,21.40
2022-12-11T10:14:21.379Z,23.38
2022-12-11T10:16:52.627Z,22.42
2022-12-11T10:19:24.481Z,23.88
2022-12-11T10:21:53.605Z,21.73
2022-12-11T10:25:09.537Z,24.27
2022-12-11T10:27:27.442Z,21.23
2022-12-11T10:30:15.773Z,21.13
2022-12-11T10:32:49.797Z,21.20
2022-12-11T10:35:22.306Z,20.38
2022-12-11T10:37:48.923Z,18.85
2022-12-11T10:40:16.684Z,20.60
2022-12-11T10:42:53.134Z,19.50
2022-12-11T10:45:19.900Z,19.92
2022-12-11T10:47:46.691Z,19.70
2022-12-11T10:50:25.905Z,18.85
2022-12-11T10:52:53.072Z,22.65
2022-12-11T10:55:25.921Z,18.90
2022-12-11T10:58:02.510Z,17.77
2022-12-11T11:00:33.214Z,14.48
2022-12-11T11:03:01.330Z,15.68
2022-12-11T11:05:41.000Z,19.58
2022-12-11T11:08:22.377Z,17.30
2022-12-11T11:10:58.040Z,17.35
2022-12-11T11:13:28.077Z,16.52
2022-12-11T11:16:02.113Z,17.23
2022-12-11T11:18:30.280Z,17.08
2022-12-11T11:20:57.295Z,17.35
2022-12-11T11:23:25.269Z,17.25
2022-12-11T11:26:07.222Z,14.85
2022-12-11T11:28:46.793Z,15.57
2022-12-11T11:31:15.548Z,16.20
2022-12-11T11:33:57.188Z,15.95
2022-12-11T11:36:28.912Z,16.30
2022-12-11T11:39:25.808Z,16.40
2022-12-11T11:42:06.490Z,15.60
2022-12-11T11:44:39.557Z,16.52
2022-12-11T11:47:21.686Z,17.30
2022-12-11T11:49:57.720Z,15.13
2022-12-11T11:52:45.428Z,17.00
2022-12-11T11:55:28.598Z,15.15
2022-12-11T11:58:11.861Z,12.75
2022-12-11T12:00:38.460Z,14.52
2022-12-11T12:03:15.155Z,13.48
2022-12-11T12:05:49.090Z,16.08
2022-12-11T12:08:32.983Z,15.02
2022-12-11T12:11:28.214Z,14.10
2022-12-11T12:14:43.785Z,14.15
2022-12-11T12:17:08.707Z,16.02
2022-12-11T12:19:43.532Z,14.45
2022-12-11T12:22:43.763Z,12.95
2022-12-11T12:25:25.807Z,15.65
2022-12-11T12:28:17.480Z,17.30
2022-12-11T12:31:16.940Z,17.02
2022-12-11T12:34:11.175Z,16.83
2022-12-11T12:36:56.975Z,16.60
2022-12-11T12:39:48.172Z,15.40
2022-12-11T12:42:41.856Z,15.48
2022-12-11T12:45:19.844Z,14.10
2022-12-11T12:47:53.214Z,15.00
2022-12-11T12:50:23.936Z,14.30
2022-12-11T12:52:53.047Z,15.27
2022-12-11T12:55:24.294Z,15.60
2022-12-11T12:57:57.678Z,14.23
2022-12-11T13:00:31.958Z,14.77
2022-12-11T13:03:01.833Z,14.43
2022-12-11T13:08:00.970Z,14.40
2022-12-11T13:10:36.628Z,13.65
2022-12-11T13:13:04.992Z,14.32
2022-12-11T13:15:36.524Z,14.90
2022-12-11T13:18:24.668Z,17.15
2022-12-11T13:20:52.231Z,16.98
2022-12-11T13:23:28.529Z,14.82
2022-12-11T13:26:00.816Z,16.23
2022-12-11T13:28:39.729Z,15.82
2022-12-11T13:31:08.036Z,17.15
2022-12-11T13:33:41.683Z,15.38
2022-12-11T13:36:15.936Z,16.15
2022-12-11T13:38:53.259Z,16.60
2022-12-11T13:41:20.716Z,16.20
2022-12-11T13:43:49.499Z,15.38
2022-12-11T13:46:26.229Z,18.02
2022-12-11T13:48:57.112Z,15.18
2022-12-11T13:51:25.325Z,14.88
2022-12-11T13:54:17.857Z,15.60
2022-12-11T13:56:58.857Z,15.82
2022-12-11T13:59:34.782Z,17.00
2022-12-11T14:02:23.702Z,17.65
2022-12-11T14:04:57.085Z,16.27
2022-12-11T14:07:51.626Z,15.85
2022-12-11T14:10:22.055Z,14.30
2022-12-11T14:12:56.576Z,16.63
2022-12-11T14:15:23.927Z,14.60
2022-12-11T14:17:52.048Z,15.95
2022-12-11T14:20:44.972Z,16.98
2022-12-11T14:23:18.647Z,17.13
2022-12-11T14:26:00.653Z,14.25
2022-12-11T14:28:36.008Z,15.40
2022-12-11T14:31:04.319Z,13.25
2022-12-11T14:34:00.708Z,13.90
2022-12-11T14:36:29.936Z,14.55
2022-12-11T14:39:03.223Z,13.73
2022-12-11T14:41:45.705Z,14.25
2022-12-11T14:44:18.484Z,14.20
2022-12-11T14:46:52.196Z,12.98
2022-12-11T14:50:02.943Z,14.32
2022-12-11T14:52:47.536Z,14.73
2022-12-11T14:55:24.480Z,12.27
2022-12-11T14:57:56.257Z,12.45
2022-12-11T15:00:25.170Z,12.50
2022-12-11T15:03:05.654Z,13.47
2022-12-11T15:05:38.911Z,13.93
2022-12-11T15:08:10.099Z,14.98
2022-12-11T15:10:42.542Z,15.18
2022-12-11T15:13:10.045Z,14.63
2022-12-11T15:15:45.452Z,15.85
2022-12-11T15:18:28.367Z,13.55
2022-12-11T15:20:59.563Z,14.48
2022-12-11T15:23:27.346Z,15.15
2022-12-11T15:25:57.632Z,13.90
2022-12-11T15:28:33.815Z,15.63
2022-12-11T15:31:04.289Z,17.35
2022-12-11T15:33:34.406Z,16.25
2022-12-11T15:36:03.013Z,14.60
2022-12-11T15:38:34.900Z,14.98
2022-12-11T15:41:02.505Z,15.13
2022-12-11T15:43:31.762Z,16.75
2022-12-11T15:45:58.432Z,16.17
2022-12-11T15:48:31.970Z,16.85
2022-12-11T15:50:58.910Z,16.65
2022-12-11T15:53:25.607Z,15.75
2022-12-11T15:55:52.846Z,17.85
2022-12-11T15:58:22.980Z,15.75
2022-12-11T16:00:49.668Z,16.45
2022-12-11T16:03:18.738Z,17.95
2022-12-11T16:05:45.804Z,16.85
2022-12-11T16:08:18.124Z,17.05
2022-12-11T16:10:45.996Z,18.23
2022-12-11T16:13:13.735Z,15.27
2022-12-11T16:15:43.700Z,16.00
2022-12-11T16:18:15.498Z,18.52
2022-12-11T16:20:43.925Z,15.73
2022-12-11T16:23:11.578Z,17.35
2022-12-11T16:25:39.860Z,18.17
2022-12-11T16:28:07.424Z,17.98
2022-12-11T16:30:36.117Z,15.45
2022-12-11T16:33:10.272Z,18.75
2022-12-11T16:35:45.982Z,14.80
2022-12-11T16:38:13.453Z,16.42
2022-12-11T16:40:41.362Z,16.25
2022-12-11T16:43:08.309Z,16.70
2022-12-11T16:45:34.999Z,16.73
2022-12-11T16:48:04.725Z,15.27
2022-12-11T16:50:32.282Z,15.73
2022-12-11T16:52:59.047Z,15.93
2022-12-11T16:55:25.685Z,16.42
2022-12-11T16:57:52.365Z,18.10
2022-12-11T17:00:19.748Z,15.35
2022-12-11T17:02:46.395Z,18.55
2022-12-11T17:05:13.875Z,15.23
2022-12-11T17:07:40.711Z,16.42
2022-12-11T17:10:07.975Z,15.00
2022-12-11T17:12:34.625Z,15.90
2022-12-11T17:15:04.525Z,16.73
2022-12-11T17:19:57.856Z,16.30
2022-12-11T17:22:25.137Z,16.15
2022-12-11T17:24:51.875Z,17.13
2022-12-11T17:27:18.506Z,15.73
2022-12-11T17:29:45.213Z,17.45
2022-12-11T17:32:11.755Z,16.35
2022-12-11T17:34:38.812Z,15.77
2022-12-11T17:37:05.941Z,15.35
2022-12-11T17:39:32.625Z,16.63
2022-12-11T17:41:59.263Z,14.52
2022-12-11T17:44:26.627Z,17.38
2022-12-11T17:46:53.633Z,15.20
2022-12-11T17:49:20.319Z,14.98
2022-12-11T17:51:47.756Z,15.93
2022-12-11T17:54:14.679Z,15.07
2022-12-11T17:56:41.384Z,14.90
2022-12-11T17:59:08.081Z,14.77
2022-12-11T18:01:34.788Z,15.75
2022-12-11T18:04:02.263Z,16.23
2022-12-11T18:06:29.858Z,16.42
2022-12-11T18:08:57.730Z,13.88
2022-12-11T18:11:24.764Z,15.07
2022-12-11T18:13:52.371Z,15.52
2022-12-11T18:16:25.470Z,15.50
2022-12-11T18:18:52.710Z,13.68
2022-12-11T18:21:27.393Z,14.10
2022-12-11T18:23:54.438Z,14.68
2022-12-11T18:26:21.563Z,13.32
2022-12-11T18:28:50.011Z,13.52
2022-12-11T18:31:17.242Z,12.57
2022-12-11T18:33:45.642Z,14.88
2022-12-11T18:36:14.764Z,14.38
2022-12-11T18:38:42.205Z,11.95
2022-12-11T18:41:10.683Z,13.38
2022-12-11T18:43:37.649Z,12.18
2022-12-11T18:46:13.992Z,11.18
2022-12-11T18:48:41.653Z,11.88
2022-12-11T18:51:14.403Z,13.13
2022-12-11T18:53:41.198Z,12.70
2022-12-11T18:56:10.396Z,13.25
2022-12-11T18:58:37.638Z,12.32
2022-12-11T19:01:25.143Z,14.18
2022-12-11T19:03:58.818Z,13.50
2022-12-11T19:06:30.199Z,13.23
2022-12-11T19:08:58.101Z,14.20
2022-12-11T19:11:26.515Z,13.48
2022-12-11T19:13:56.997Z,13.63
2022-12-11T19:16:29.923Z,12.63
2022-12-11T19:19:01.427Z,13.00
2022-12-11T19:21:28.265Z,12.35
2022-12-11T19:23:54.985Z,12.13
2022-12-11T19:26:23.480Z,12.20
2022-12-11T19:28:51.307Z,13.15
2022-12-11T19:31:20.820Z,14.45
2022-12-11T19:33:47.798Z,13.13
2022-12-11T19:36:15.796Z,13.88
2022-12-11T19:38:44.250Z,13.95
2022-12-11T19:41:18.435Z,15.25
2022-12-11T19:43:45.298Z,14.50
2022-12-11T19:46:12.742Z,13.48
2022-12-11T19:48:41.472Z,14.95
2022-12-11T19:51:20.059Z,13.43
2022-12-11T19:53:48.550Z,14.75
2022-12-11T19:56:16.704Z,13.50
2022-12-11T19:58:43.875Z,13.48
2022-12-11T20:01:17.260Z,14.20
2022-12-11T20:03:43.923Z,12.63
2022-12-11T20:08:58.314Z,13.90
2022-12-11T20:11:25.442Z,15.07
2022-12-11T20:13:54.308Z,15.00
2022-12-11T20:16:33.651Z,14.83
2022-12-11T20:19:08.282Z,15.48
2022-12-11T20:21:34.904Z,14.30
2022-12-11T20:24:01.624Z,16.15
2022-12-11T20:26:29.822Z,16.25
2022-12-11T20:28:56.777Z,17.15
2022-12-11T20:31:25.160Z,16.25
2022-12-11T20:33:53.533Z,15.90
2022-12-11T20:36:21.712Z,16.75
2022-12-11T20:38:49.049Z,15.73
2022-12-11T20:41:18.879Z,15.43
2022-12-11T20:46:15.203Z,12.93
2022-12-11T20:48:43.891Z,14.02
2022-12-11T20:51:12.840Z,13.27
2022-12-11T20:53:40.504Z,12.87
2022-12-11T20:56:12.629Z,15.80
2022-12-11T20:58:40.356Z,15.10
2022-12-11T21:01:07.061Z,14.30
2022-12-11T21:03:40.464Z,16.52
2022-12-11T21:06:16.804Z,14.95
2022-12-11T21:08:43.513Z,14.73
2022-12-11T21:11:10.466Z,16.83
2022-12-11T21:13:37.270Z,15.95
2022-12-11T21:16:06.162Z,16.50
2022-12-11T21:18:32.940Z,15.10
2022-12-11T21:20:59.975Z,15.23
2022-12-11T21:23:26.664Z,16.05
2022-12-11T21:25:53.348Z,14.55
2022-12-11T21:28:20.624Z,14.43
2022-12-11T21:30:47.249Z,16.30
2022-12-11T21:33:13.994Z,16.13
2022-12-11T21:35:40.640Z,15.55
2022-12-11T21:38:07.265Z,15.27
2022-12-11T21:40:34.048Z,13.13
2022-12-11T21:43:00.702Z,14.20
2022-12-11T21:48:14.389Z,14.95
2022-12-11T21:50:41.296Z,15.57
2022-12-11T21:53:07.871Z,15.45
2022-12-11T21:55:34.503Z,14.85
2022-12-11T21:58:01.128Z,13.50
2022-12-11T22:00:28.186Z,12.93
2022-12-11T22:02:54.953Z,15.32
2022-12-11T22:05:21.817Z,13.50
2022-12-11T22:07:48.599Z,14.52
2022-12-11T22:10:15.321Z,14.43
2022-12-11T22:12:42.006Z,14.57
2022-12-11T22:15:09.314Z,13.48
2022-12-11T22:17:37.129Z,13.60
2022-12-11T22:20:05.905Z,12.70
2022-12-11T22:22:32.675Z,12.38
2022-12-11T22:24:59.366Z,13.00
2022-12-11T22:27:25.973Z,13.10
2022-12-11T22:29:52.665Z,13.65
2022-12-11T22:32:19.232Z,12.23
2022-12-11T22:34:45.856Z,13.65
2022-12-11T22:37:12.473Z,12.57
2022-12-11T22:39:39.081Z,13.35
2022-12-11T22:42:05.782Z,13.10
2022-12-11T22:44:32.437Z,13.27
2022-12-11T22:46:59.074Z,12.85
2022-12-11T22:49:25.705Z,12.82
2022-12-11T22:51:52.389Z,12.70
2022-12-11T22:54:18.973Z,13.80
2022-12-11T22:56:45.683Z,13.95
2022-12-11T22:59:12.540Z,14.88
2022-12-11T23:01:39.225Z,12.57
2022-12-11T23:04:05.973Z,13.82
2022-12-11T23:06:32.736Z,14.93
2022-12-11T23:09:00.385Z,12.77
2022-12-11T23:11:30.978Z,14.30
2022-12-11T23:13:58.051Z,12.60
2022-12-11T23:16:26.685Z,13.80
2022-12-11T23:18:55.049Z,14.05
2022-12-11T23:21:22.168Z,13.07
2022-12-11T23:23:48.990Z,12.90
2022-12-11T23:26:18.673Z,14.98
2022-12-11T23:28:46.163Z,13.88
2022-12-11T23:31:13.191Z,15.02
2022-12-11T23:33:39.895Z,14.65
2022-12-11T23:36:07.391Z,13.88
2022-12-11T23:38:34.081Z,13.50
2022-12-11T23:41:01.966Z,14.68
2022-12-11T23:43:28.790Z,13.68
2022-12-11T23:45:55.473Z,14.25
2022-12-11T23:48:22.417Z,15.80
2022-12-11T23:50:49.083Z,13.88
2022-12-11T23:53:15.884Z,14.13
2022-12-11T23:55:44.452Z,15.82
2022-12-11T23:58:11.813Z,13.45
